createdAt,value
2023-04-27T05:02:32.155Z,12.60
2023-04-27T05:07:35.661Z,12.60
2023-04-27T05:12:38.951Z,12.60
2023-04-27T05:17:43.698Z,12.60
2023-04-27T05:22:47.486Z,12.50
2023-04-27T05:27:50.776Z,12.60
2023-04-27T05:32:55.464Z,12.60
2023-04-27T05:37:58.856Z,12.50
2023-04-27T05:43:05.365Z,12.50
2023-04-27T05:48:10.261Z,12.40
2023-04-27T05:53:13.618Z,12.40
2023-04-27T05:58:17.243Z,12.40
2023-04-27T06:03:22.363Z,12.40
2023-04-27T06:08:25.815Z,12.50
2023-04-27T06:13:29.132Z,12.50
2023-04-27T06:18:33.865Z,12.70
2023-04-27T06:23:37.166Z,12.70
2023-04-27T06:28:40.486Z,12.90
2023-04-27T06:33:45.198Z,13.00
2023-04-27T06:38:49.637Z,13.10
2023-04-27T06:43:53.061Z,13.20
2023-04-27T06:48:57.946Z,13.40
2023-04-27T06:54:01.257Z,13.50
2023-04-27T06:59:04.790Z,13.50
2023-04-27T07:04:09.571Z,13.70
2023-04-27T07:09:26.148Z,13.80
2023-04-27T07:14:30.565Z,14.00
2023-04-27T07:19:35.969Z,14.00
2023-04-27T07:24:39.307Z,14.20
2023-04-27T07:29:43.491Z,14.30
2023-04-27T07:34:53.429Z,14.50
2023-04-27T07:39:57.766Z,14.50
2023-04-27T07:45:01.244Z,14.60
2023-04-27T07:50:07.344Z,14.50
2023-04-27T07:55:11.094Z,14.40
2023-04-27T08:00:14.689Z,14.40
2023-04-27T08:05:19.723Z,14.40
2023-04-27T08:10:23.771Z,14.40
2023-04-27T08:15:27.099Z,14.40
2023-04-27T08:20:31.819Z,14.40
2023-04-27T08:25:36.778Z,14.40
2023-04-27T08:30:40.099Z,14.50
2023-04-27T08:35:44.761Z,14.50
2023-04-27T08:40:48.071Z,14.60
2023-04-27T08:45:51.899Z,14.50
2023-04-27T08:50:57.288Z,14.50
2023-04-27T08:56:01.984Z,14.60
2023-04-27T09:01:06.776Z,14.60
2023-04-27T09:06:11.558Z,14.70
2023-04-27T09:11:15.532Z,14.70
2023-04-27T09:16:24.273Z,14.80
2023-04-27T09:21:29.948Z,14.80
2023-04-27T09:26:33.276Z,14.90
2023-04-27T09:31:37.352Z,15.10
2023-04-27T09:36:42.511Z,15.20
2023-04-27T09:41:46.397Z,15.30
2023-04-27T09:46:49.849Z,15.30
2023-04-27T09:51:56.929Z,15.30
2023-04-27T09:57:12.820Z,15.30
2023-04-27T10:07:28.874Z,15.40
2023-04-27T10:12:34.646Z,15.50
2023-04-27T10:17:38.061Z,15.50
2023-04-27T10:22:43.562Z,15.50
2023-04-27T10:27:50.001Z,15.50
2023-04-27T10:32:54.331Z,15.50
2023-04-27T10:38:06.304Z,15.60
2023-04-27T10:43:10.297Z,15.80
2023-04-27T10:48:14.425Z,15.80
2023-04-27T10:53:19.156Z,15.90
2023-04-27T10:58:24.169Z,16.00
2023-04-27T11:03:28.889Z,16.00
2023-04-27T11:08:34.237Z,15.90
2023-04-27T11:13:37.687Z,15.90
2023-04-27T11:18:41.027Z,15.90
2023-04-27T11:23:45.727Z,16.00
2023-04-27T11:28:58.845Z,16.10
2023-04-27T11:34:02.201Z,16.10
2023-04-27T11:39:07.487Z,16.20
2023-04-27T11:44:11.434Z,16.30
2023-04-27T11:49:15.504Z,16.30
2023-04-27T11:54:20.396Z,16.20
2023-04-27T11:59:24.093Z,16.20
2023-04-27T12:04:27.579Z,16.30
2023-04-27T12:09:32.532Z,16.30
2023-04-27T12:14:35.868Z,16.30
2023-04-27T12:19:39.205Z,16.40
2023-04-27T12:24:43.920Z,16.50
2023-04-27T12:29:47.237Z,16.50
2023-04-27T12:34:50.968Z,16.60
2023-04-27T12:39:55.806Z,16.80
2023-04-27T12:44:59.345Z,16.80
2023-04-27T12:50:02.821Z,17.00
2023-04-27T12:55:15.393Z,17.10
2023-04-27T13:00:25.294Z,17.30
2023-04-27T13:05:31.281Z,17.30
2023-04-27T13:10:37.306Z,17.50
2023-04-27T13:15:40.693Z,17.50
2023-04-27T13:20:44.172Z,17.60
2023-04-27T13:25:49.785Z,17.70
2023-04-27T13:30:53.158Z,17.70
2023-04-27T13:35:56.505Z,17.80
2023-04-27T13:41:01.255Z,17.90
2023-04-27T13:46:04.657Z,18.00
2023-04-27T13:51:07.999Z,18.00
2023-04-27T13:56:12.738Z,18.00
2023-04-27T14:01:16.174Z,18.10
2023-04-27T14:06:19.515Z,18.10
2023-04-27T14:11:24.421Z,18.20
2023-04-27T14:16:27.853Z,18.30
2023-04-27T14:21:32.216Z,18.30
2023-04-27T14:26:36.873Z,18.40
2023-04-27T14:31:40.774Z,18.30
2023-04-27T14:36:44.143Z,18.40
2023-04-27T14:41:48.839Z,18.30
2023-04-27T14:46:52.174Z,18.40
2023-04-27T14:51:55.517Z,18.50
2023-04-27T14:57:01.080Z,18.50
2023-04-27T15:02:05.018Z,18.60
2023-04-27T15:07:09.769Z,18.60
2023-04-27T15:12:14.665Z,18.50
2023-04-27T15:17:18.009Z,18.40
2023-04-27T15:22:21.603Z,18.50
2023-04-27T15:27:26.608Z,18.50
2023-04-27T15:32:30.324Z,18.50
2023-04-27T15:37:36.021Z,18.60
2023-04-27T15:42:40.766Z,18.80
2023-04-27T15:47:44.123Z,18.70
2023-04-27T15:52:47.472Z,18.60
2023-04-27T15:57:52.157Z,14.80
2023-04-27T16:02:55.761Z,18.50
2023-04-27T16:07:59.171Z,18.40
2023-04-27T16:13:03.924Z,18.40
2023-04-27T16:18:07.271Z,18.40
2023-04-27T16:23:10.617Z,18.30
2023-04-27T16:28:16.571Z,18.30
2023-04-27T16:33:21.341Z,18.30
2023-04-27T16:38:24.807Z,18.30
2023-04-27T16:43:31.226Z,18.30
2023-04-27T16:48:34.578Z,18.40
2023-04-27T16:53:37.906Z,18.30
2023-04-27T16:58:42.620Z,18.20
2023-04-27T17:03:46.062Z,18.20
2023-04-27T17:08:49.437Z,18.20
2023-04-27T17:13:54.163Z,18.20
2023-04-27T17:18:57.626Z,18.10
2023-04-27T17:24:01.065Z,18.10
2023-04-27T17:29:05.936Z,18.00
2023-04-27T17:34:09.502Z,18.10
2023-04-27T17:39:13.983Z,18.00
2023-04-27T17:44:18.797Z,18.00
2023-04-27T17:49:22.140Z,18.00
2023-04-27T17:54:26.271Z,18.00
2023-04-27T17:59:31.953Z,18.10
2023-04-27T18:04:35.366Z,18.00
2023-04-27T18:09:38.763Z,18.00
2023-04-27T18:14:43.449Z,17.90
2023-04-27T18:19:47.425Z,18.00
2023-04-27T18:24:52.305Z,17.90
2023-04-27T18:29:56.956Z,17.80
2023-04-27T18:35:00.475Z,17.80
2023-04-27T18:40:05.851Z,17.70
2023-04-27T18:45:11.234Z,17.70
2023-04-27T18:50:14.602Z,17.60
2023-04-27T18:55:18.188Z,17.60
2023-04-27T19:00:22.945Z,17.50
2023-04-27T19:05:27.333Z,17.50
2023-04-27T19:10:31.156Z,17.50
2023-04-27T19:15:35.948Z,17.40
2023-04-27T19:20:39.468Z,17.40
2023-04-27T19:25:43.156Z,17.30
2023-04-27T19:30:48.036Z,17.30
2023-04-27T19:35:52.420Z,17.40
2023-04-27T19:40:55.746Z,17.30
2023-04-27T19:46:01.919Z,17.30
2023-04-27T19:51:09.120Z,17.30
2023-04-27T19:56:12.578Z,17.30
2023-04-27T20:01:17.323Z,17.30
2023-04-27T20:06:21.676Z,17.30
2023-04-27T20:11:24.996Z,17.20
2023-04-27T20:16:29.755Z,17.20
2023-04-27T20:21:33.546Z,17.10
2023-04-27T20:26:36.883Z,17.20
2023-04-27T20:31:41.692Z,17.00
2023-04-27T20:36:45.364Z,17.00
2023-04-27T20:41:49.137Z,17.00
2023-04-27T20:46:53.833Z,17.00
2023-04-27T20:51:57.124Z,16.90
2023-04-27T20:57:01.452Z,16.90
2023-04-27T21:02:06.147Z,17.00
2023-04-27T21:07:09.470Z,16.90
2023-04-27T21:12:14.657Z,16.90
2023-04-27T21:17:19.354Z,16.90
2023-04-27T21:22:22.951Z,16.90
2023-04-27T21:27:26.249Z,16.90
2023-04-27T21:32:30.969Z,16.90
2023-04-27T21:37:34.330Z,17.20
2023-04-27T21:42:37.745Z,17.00
2023-04-27T21:47:42.503Z,16.90
2023-04-27T21:52:45.954Z,16.90
2023-04-27T21:57:49.250Z,16.80
2023-04-27T22:02:54.036Z,16.90
2023-04-27T22:07:58.239Z,16.80
2023-04-27T22:13:08.263Z,16.70
2023-04-27T22:18:19.822Z,16.80
2023-04-27T22:23:23.146Z,16.80
2023-04-27T22:28:26.536Z,16.80
